Terminal Aerodrome Forecast
Issued by NWS Cleveland, OH

Home | Current Version | Previous Version | Graphics & Text | Print | Product List | Glossary On
Versions: 1 2 3 4 5 6 7 8 9 10 11 12 13 14 15 16 17 18 19
000
FTUS41 KCLE 281730
TAFCAK
TAF
KCAK 281730Z 2818/2918 19005KT P6SM SCT040
     FM282100 28005KT P6SM VCTS BKN040CB
     FM290000 35005KT P6SM BKN150
      TEMPO 2909/2912 4SM BR
     FM291400 02008KT P6SM FEW050=

USA.gov is the U.S. government's official web portal to all federal, state and local government web resources and services.